Time;durP1;ratioP1;P1;durP2;ratioP2;P2;SDS_P1;SDS_P2;PMS_P1;PMS_P2;Temp;Humidity;BMP_temperature;BMP_pressure;BME280_temperature;BME280_humidity;BME280_pressure;Samples;Min_cycle;Max_cycle;Signal;HPM_P1;HPM_P2
2021/05/10 00:01:04;;;;;;;2.50;2.30;;;18.20;90.00;;;;;;5035003;28;20623;-77
2021/05/10 00:03:31;;;;;;;2.40;2.13;;;18.20;90.00;;;;;;5034955;28;20224;-77
2021/05/10 00:05:57;;;;;;;2.30;2.10;;;18.30;90.40;;;;;;5034831;28;20230;-78
2021/05/10 00:08:25;;;;;;;2.85;2.65;;;18.30;90.20;;;;;;5035044;28;20207;-77
2021/05/10 00:10:54;;;;;;;2.90;2.70;;;18.30;90.30;;;;;;5034860;28;20232;-77
2021/05/10 00:13:21;;;;;;;2.85;2.65;;;18.30;90.80;;;;;;5034574;28;20206;-77
2021/05/10 00:15:48;;;;;;;3.00;2.45;;;18.30;91.20;;;;;;5034423;28;20315;-77
2021/05/10 00:18:15;;;;;;;2.67;2.47;;;18.30;91.20;;;;;;5034564;28;20218;-77
2021/05/10 00:20:44;;;;;;;2.70;2.50;;;18.30;91.40;;;;;;5034608;28;20613;-77
2021/05/10 00:23:12;;;;;;;2.70;2.50;;;18.30;91.60;;;;;;5034419;28;20224;-77
2021/05/10 00:25:39;;;;;;;3.55;2.88;;;18.30;91.60;;;;;;5034299;28;20318;-77
2021/05/10 00:28:06;;;;;;;2.92;2.72;;;18.30;91.80;;;;;;5034369;28;20243;-77
2021/05/10 00:30:34;;;;;;;2.10;2.00;;;18.30;91.90;;;;;;5034361;28;20299;-77
2021/05/10 00:33:01;;;;;;;3.42;2.90;;;18.30;92.20;;;;;;5033951;28;20212;-77
2021/05/10 00:35:28;;;;;;;2.90;2.70;;;18.20;92.10;;;;;;5034089;28;20278;-77
2021/05/10 00:37:54;;;;;;;2.72;2.45;;;18.20;92.50;;;;;;5034381;28;20313;-77
2021/05/10 00:40:22;;;;;;;2.83;2.63;;;18.10;92.50;;;;;;5034266;28;20353;-77
2021/05/10 00:42:51;;;;;;;3.17;2.65;;;18.10;92.40;;;;;;5034027;28;20246;-77
2021/05/10 00:45:17;;;;;;;2.67;2.45;;;18.20;92.50;;;;;;5033877;28;20310;-77
2021/05/10 00:47:45;;;;;;;2.88;2.67;;;18.20;92.30;;;;;;5034080;28;20295;-77
2021/05/10 00:50:13;;;;;;;3.00;2.78;;;18.30;92.00;;;;;;5033996;28;20623;-77
2021/05/10 00:52:39;;;;;;;2.75;2.55;;;18.20;91.90;;;;;;5034057;28;20258;-77
2021/05/10 00:55:09;;;;;;;2.60;2.40;;;18.20;92.10;;;;;;5034197;28;20315;-77
2021/05/10 00:57:39;;;;;;;2.50;2.30;;;18.20;91.60;;;;;;5033726;28;20234;-77
2021/05/10 01:00:08;;;;;;;2.80;2.30;;;18.10;91.20;;;;;;5033636;28;20562;-77
2021/05/10 01:02:35;;;;;;;2.80;2.60;;;18.10;91.30;;;;;;5033528;28;20681;-77
2021/05/10 01:05:03;;;;;;;2.92;2.70;;;18.10;91.80;;;;;;5033727;28;20315;-77
2021/05/10 01:07:30;;;;;;;2.80;2.60;;;18.00;91.60;;;;;;5033594;28;20303;-77
2021/05/10 01:09:56;;;;;;;2.85;2.65;;;18.00;91.10;;;;;;5033473;28;20291;-77
2021/05/10 01:12:23;;;;;;;2.95;2.75;;;17.90;91.20;;;;;;5033095;28;20234;-77
2021/05/10 01:14:49;;;;;;;2.67;2.47;;;17.90;90.90;;;;;;5033693;28;20665;-77
2021/05/10 01:17:16;;;;;;;2.78;2.30;;;17.80;91.20;;;;;;5033521;28;20298;-77
2021/05/10 01:19:42;;;;;;;3.03;2.80;;;17.80;91.30;;;;;;5033645;28;20203;-77
2021/05/10 01:22:11;;;;;;;2.97;2.70;;;17.70;91.80;;;;;;5033464;28;20206;-77
2021/05/10 01:24:38;;;;;;;2.60;2.40;;;17.40;92.30;;;;;;5033374;28;20232;-77
2021/05/10 01:27:05;;;;;;;2.90;2.70;;;17.40;92.70;;;;;;5033396;28;20207;-77
2021/05/10 01:29:32;;;;;;;2.90;2.70;;;17.40;92.60;;;;;;5033560;28;20235;-77
2021/05/10 01:31:58;;;;;;;2.90;2.67;;;17.40;93.20;;;;;;5033383;28;20307;-77
2021/05/10 01:34:24;;;;;;;3.42;2.72;;;17.50;93.00;;;;;;5033431;28;20554;-77
2021/05/10 01:36:51;;;;;;;2.78;2.55;;;17.50;93.20;;;;;;5033354;28;20258;-77
2021/05/10 01:39:17;;;;;;;3.25;2.95;;;17.50;93.60;;;;;;5033409;28;20676;-77
2021/05/10 01:41:44;;;;;;;3.60;3.30;;;17.50;94.10;;;;;;5033163;28;20242;-77
2021/05/10 01:44:11;;;;;;;3.22;3.03;;;17.50;94.50;;;;;;5033119;28;20227;-76
2021/05/10 01:46:37;;;;;;;3.00;2.80;;;17.40;95.00;;;;;;5033215;28;20293;-77
2021/05/10 01:49:04;;;;;;;6.35;3.38;;;17.30;94.20;;;;;;5033238;28;20315;-77
2021/05/10 01:51:30;;;;;;;3.33;3.03;;;17.10;94.20;;;;;;5033313;28;20211;-77
2021/05/10 01:53:56;;;;;;;3.05;2.85;;;17.00;94.30;;;;;;5033204;28;20230;-77
2021/05/10 01:56:23;;;;;;;3.85;2.70;;;17.00;94.10;;;;;;5033022;28;20270;-77
2021/05/10 01:58:54;;;;;;;2.97;2.75;;;17.00;94.10;;;;;;5033272;28;20286;-77
2021/05/10 02:01:21;;;;;;;3.15;2.78;;;16.90;93.70;;;;;;5033290;28;20607;-77
2021/05/10 02:03:48;;;;;;;3.45;3.15;;;16.90;94.20;;;;;;5033131;28;20249;-77
2021/05/10 02:06:14;;;;;;;2.70;2.50;;;16.90;94.10;;;;;;5032680;28;20798;-77
2021/05/10 02:08:41;;;;;;;2.90;2.70;;;16.90;94.20;;;;;;5033100;28;20298;-77
2021/05/10 02:11:07;;;;;;;4.80;2.60;;;16.90;93.80;;;;;;5032912;28;20673;-77
2021/05/10 02:13:34;;;;;;;3.65;2.83;;;17.00;94.30;;;;;;5033113;28;20565;-77
2021/05/10 02:16:02;;;;;;;2.85;2.55;;;16.90;94.50;;;;;;5032644;28;20310;-77
2021/05/10 02:18:30;;;;;;;3.25;3.05;;;16.90;94.30;;;;;;5032982;28;20761;-77
2021/05/10 02:20:57;;;;;;;3.00;2.80;;;16.90;94.40;;;;;;5033067;28;20624;-77
2021/05/10 02:23:26;;;;;;;3.65;3.35;;;16.90;94.50;;;;;;5036178;28;20314;-77
2021/05/10 02:25:53;;;;;;;3.00;2.80;;;16.90;94.60;;;;;;5036537;28;20231;-77
2021/05/10 02:28:23;;;;;;;3.75;2.58;;;17.00;94.60;;;;;;5036672;28;20298;-77
2021/05/10 02:30:50;;;;;;;3.40;3.10;;;17.00;94.60;;;;;;5036488;28;20211;-77
2021/05/10 02:33:19;;;;;;;3.45;3.15;;;17.00;94.40;;;;;;5036611;28;20605;-77
2021/05/10 02:35:47;;;;;;;3.00;2.80;;;17.00;94.60;;;;;;5035969;28;20262;-77
2021/05/10 02:38:14;;;;;;;3.03;2.80;;;17.00;94.60;;;;;;5036516;28;20338;-77
2021/05/10 02:40:41;;;;;;;2.85;2.65;;;16.90;94.80;;;;;;5036447;28;20640;-77
2021/05/10 02:43:07;;;;;;;3.25;2.85;;;16.70;95.20;;;;;;5036289;28;20224;-77
2021/05/10 02:45:34;;;;;;;2.88;2.67;;;16.50;95.70;;;;;;5035980;28;20772;-76
2021/05/10 02:48:00;;;;;;;2.83;2.60;;;16.50;95.30;;;;;;5036209;28;20238;-76
2021/05/10 02:50:27;;;;;;;3.20;3.00;;;16.50;95.20;;;;;;5036214;28;20683;-77
2021/05/10 02:52:55;;;;;;;2.90;2.70;;;16.60;95.90;;;;;;5036219;28;20299;-77
2021/05/10 02:55:21;;;;;;;3.35;2.75;;;16.60;95.60;;;;;;5036010;28;20364;-77
2021/05/10 02:57:49;;;;;;;3.13;2.83;;;16.60;95.30;;;;;;5035804;28;20753;-77
2021/05/10 03:00:17;;;;;;;3.53;3.22;;;16.70;95.90;;;;;;5035987;28;20291;-77
2021/05/10 03:02:44;;;;;;;3.67;3.00;;;16.70;95.90;;;;;;5035853;28;20208;-77
2021/05/10 03:05:12;;;;;;;4.53;3.75;;;16.60;97.40;;;;;;5035998;28;20304;-77
2021/05/10 03:07:40;;;;;;;7.03;3.70;;;16.70;97.70;;;;;;5035776;28;20208;-77
2021/05/10 03:10:08;;;;;;;3.78;3.45;;;16.70;97.50;;;;;;5035775;28;20658;-77
2021/05/10 03:12:35;;;;;;;3.80;3.47;;;16.60;97.30;;;;;;5035766;28;20213;-77
2021/05/10 03:15:01;;;;;;;4.00;3.28;;;16.60;97.30;;;;;;5035546;28;20223;-77
2021/05/10 03:17:28;;;;;;;4.10;3.75;;;16.60;98.10;;;;;;5035574;28;20294;-77
2021/05/10 03:19:54;;;;;;;4.43;3.88;;;16.60;97.90;;;;;;5035731;28;20301;-77
2021/05/10 03:22:20;;;;;;;4.30;3.70;;;16.60;98.40;;;;;;5035684;28;20625;-77
2021/05/10 03:24:47;;;;;;;3.85;3.45;;;16.50;98.60;;;;;;5035527;28;20317;-77
2021/05/10 03:27:14;;;;;;;3.17;2.88;;;16.60;98.70;;;;;;5035439;28;20298;-77
2021/05/10 03:29:40;;;;;;;3.70;2.85;;;16.50;97.60;;;;;;5035248;28;20687;-77
2021/05/10 03:32:07;;;;;;;2.95;2.75;;;16.50;96.70;;;;;;5035312;28;20246;-77
2021/05/10 03:34:33;;;;;;;3.20;2.90;;;16.50;96.60;;;;;;5034571;28;20314;-77
2021/05/10 03:36:59;;;;;;;5.05;2.80;;;16.50;95.70;;;;;;5035264;28;20239;-77
2021/05/10 03:39:26;;;;;;;4.15;3.15;;;16.50;95.50;;;;;;5035398;28;20243;-77
2021/05/10 03:41:53;;;;;;;2.90;2.70;;;16.50;95.70;;;;;;5035219;28;20211;-77
2021/05/10 03:44:20;;;;;;;5.50;3.63;;;16.50;96.10;;;;;;5035113;28;20321;-77
2021/05/10 03:46:46;;;;;;;2.60;2.40;;;16.40;97.10;;;;;;5035102;28;20301;-77
2021/05/10 03:49:12;;;;;;;3.10;2.83;;;16.30;96.50;;;;;;5035167;28;20246;-77
2021/05/10 03:51:39;;;;;;;3.13;2.60;;;16.10;97.20;;;;;;5035166;28;20305;-77
2021/05/10 03:54:05;;;;;;;3.38;3.05;;;16.00;97.70;;;;;;5035084;28;20203;-77
2021/05/10 03:56:32;;;;;;;4.55;3.22;;;16.00;98.10;;;;;;5034612;28;20225;-77
2021/05/10 03:58:59;;;;;;;3.50;3.20;;;15.90;97.60;;;;;;5034967;28;20302;-77
2021/05/10 04:01:25;;;;;;;4.60;4.05;;;15.90;99.20;;;;;;5034721;28;20679;-77
2021/05/10 04:03:58;;;;;;;3.50;3.20;;;16.00;98.80;;;;;;5034550;28;20318;-77
2021/05/10 04:14:39;;;;;;;4.25;3.70;;;15.90;99.70;;;;;;5034701;28;20255;-77
2021/05/10 04:17:06;;;;;;;4.25;3.85;;;15.90;99.90;;;;;;5034462;28;20217;-77
2021/05/10 04:19:32;;;;;;;4.50;3.67;;;15.90;99.90;;;;;;5034452;28;20211;-77
2021/05/10 04:21:58;;;;;;;4.80;3.95;;;15.90;99.90;;;;;;5034296;28;20686;-77
2021/05/10 04:24:25;;;;;;;4.50;4.10;;;15.90;99.90;;;;;;5034126;28;20720;-77
2021/05/10 04:26:51;;;;;;;5.15;3.75;;;16.00;99.90;;;;;;5034067;28;20666;-77
2021/05/10 04:29:18;;;;;;;4.60;3.50;;;16.00;99.90;;;;;;5034119;28;20292;-77
2021/05/10 04:31:45;;;;;;;4.90;4.40;;;16.00;99.90;;;;;;5034140;28;20225;-77
2021/05/10 04:34:11;;;;;;;4.45;3.72;;;16.10;99.80;;;;;;5034205;28;20198;-76
2021/05/10 04:36:37;;;;;;;3.90;2.80;;;16.20;99.20;;;;;;5034126;28;20260;-77
2021/05/10 04:39:04;;;;;;;3.63;2.30;;;16.40;96.70;;;;;;5034287;28;20250;-76
2021/05/10 04:41:30;;;;;;;2.20;2.00;;;16.80;90.80;;;;;;5034022;28;20218;-77
2021/05/10 04:43:57;;;;;;;4.40;2.45;;;17.20;90.50;;;;;;5034079;28;20314;-77
2021/05/10 04:46:23;;;;;;;2.75;2.55;;;17.50;90.40;;;;;;5033898;28;20259;-77
2021/05/10 04:48:50;;;;;;;2.97;2.72;;;17.60;90.40;;;;;;5034046;28;20206;-77
2021/05/10 04:51:17;;;;;;;2.92;2.70;;;17.80;89.30;;;;;;5034066;28;20207;-77
2021/05/10 04:53:43;;;;;;;3.88;2.10;;;17.80;87.20;;;;;;5033989;28;20346;-77
2021/05/10 04:56:09;;;;;;;3.92;3.53;;;17.90;89.20;;;;;;5034155;28;20312;-77
2021/05/10 04:58:36;;;;;;;6.28;3.70;;;18.00;91.20;;;;;;5033918;28;20295;-77
2021/05/10 05:01:02;;;;;;;4.47;3.75;;;18.00;92.10;;;;;;5033809;28;20204;-77
2021/05/10 05:03:28;;;;;;;4.40;3.70;;;17.80;92.20;;;;;;5033724;28;20224;-77
2021/05/10 05:05:55;;;;;;;6.47;3.92;;;17.60;93.60;;;;;;5033565;28;20314;-77
2021/05/10 05:08:22;;;;;;;7.20;4.05;;;17.50;93.70;;;;;;5033614;28;20294;-77
2021/05/10 05:10:48;;;;;;;4.30;3.40;;;17.60;94.80;;;;;;5033769;28;20599;-77
2021/05/10 05:13:21;;;;;;;3.72;3.40;;;17.60;94.90;;;;;;5033659;28;20234;-77
2021/05/10 05:15:48;;;;;;;4.70;3.33;;;17.80;96.10;;;;;;5033439;28;20228;-77
2021/05/10 05:18:14;;;;;;;5.20;3.30;;;17.80;95.90;;;;;;5033682;28;20214;-77
2021/05/10 05:20:40;;;;;;;4.43;3.90;;;18.00;96.20;;;;;;5033469;28;20768;-77
2021/05/10 05:23:18;;;;;;;4.95;3.90;;;18.10;95.30;;;;;;5033580;28;20295;-77
2021/05/10 05:25:45;;;;;;;6.25;4.22;;;18.10;95.30;;;;;;5033452;28;20227;-77
2021/05/10 05:28:11;;;;;;;7.85;4.57;;;18.10;95.10;;;;;;5033554;28;20290;-77
2021/05/10 05:30:37;;;;;;;3.53;3.20;;;18.10;96.10;;;;;;5033472;28;20242;-77
2021/05/10 05:33:04;;;;;;;5.10;3.90;;;18.10;95.90;;;;;;5033209;28;20737;-77
2021/05/10 05:35:31;;;;;;;4.13;3.60;;;18.00;96.20;;;;;;5033321;28;20311;-77
2021/05/10 05:37:57;;;;;;;4.43;3.70;;;18.00;96.40;;;;;;5033482;28;20294;-77
2021/05/10 05:40:24;;;;;;;3.92;3.13;;;18.20;97.50;;;;;;5033467;28;20303;-77
2021/05/10 05:42:51;;;;;;;5.57;3.78;;;18.10;97.30;;;;;;5033432;28;20255;-77
2021/05/10 05:45:17;;;;;;;4.45;3.50;;;18.10;97.50;;;;;;5033266;28;20319;-77
2021/05/10 05:47:44;;;;;;;4.18;3.47;;;18.10;98.20;;;;;;5033479;28;20257;-77
2021/05/10 05:50:11;;;;;;;8.85;4.75;;;18.10;98.20;;;;;;5033434;28;20211;-77
2021/05/10 05:52:37;;;;;;;5.65;4.20;;;18.20;96.80;;;;;;5033304;28;20286;-77
2021/05/10 05:55:04;;;;;;;6.55;4.90;;;18.00;97.30;;;;;;5033307;28;20307;-77
2021/05/10 05:57:31;;;;;;;5.80;4.60;;;18.10;98.30;;;;;;5034715;28;20684;-77
2021/05/10 06:00:01;;;;;;;4.18;3.78;;;18.20;96.90;;;;;;5037044;28;20635;-77
2021/05/10 06:02:27;;;;;;;4.40;3.97;;;18.30;97.30;;;;;;5037058;28;20261;-77
2021/05/10 06:04:53;;;;;;;5.82;4.75;;;18.40;98.10;;;;;;5036811;28;20601;-77
2021/05/10 06:07:20;;;;;;;4.32;3.92;;;18.40;98.20;;;;;;5037013;28;20295;-77
2021/05/10 06:09:46;;;;;;;5.15;4.15;;;18.50;98.70;;;;;;5037029;28;20214;-77
2021/05/10 06:12:13;;;;;;;4.70;4.30;;;18.40;98.40;;;;;;5036977;28;20215;-77
2021/05/10 06:14:40;;;;;;;5.97;4.30;;;18.40;98.50;;;;;;5037049;28;20647;-77
2021/05/10 06:17:06;;;;;;;4.63;3.97;;;18.50;97.90;;;;;;5036918;28;20644;-77
2021/05/10 06:19:33;;;;;;;5.72;4.05;;;18.40;99.20;;;;;;5037015;28;20210;-77
2021/05/10 06:21:59;;;;;;;9.02;4.78;;;18.30;98.40;;;;;;5036829;28;20204;-77
2021/05/10 06:24:26;;;;;;;10.15;5.28;;;18.20;97.40;;;;;;5036702;28;20306;-77
2021/05/10 06:26:52;;;;;;;9.23;4.93;;;18.00;96.90;;;;;;5036659;28;20208;-77
2021/05/10 06:29:18;;;;;;;13.75;5.50;;;18.00;96.80;;;;;;5036737;28;20611;-77
2021/05/10 06:31:46;;;;;;;7.43;5.35;;;17.90;96.50;;;;;;5036292;28;20716;-77
2021/05/10 06:34:12;;;;;;;5.10;4.60;;;17.80;96.40;;;;;;5036603;28;20341;-77
2021/05/10 06:36:39;;;;;;;9.60;5.05;;;17.90;96.30;;;;;;5036189;28;20232;-77
2021/05/10 06:39:05;;;;;;;8.35;5.20;;;18.20;96.10;;;;;;5036485;28;20200;-77
2021/05/10 06:41:31;;;;;;;7.68;4.75;;;18.40;97.30;;;;;;5036503;28;20210;-77
2021/05/10 06:43:58;;;;;;;7.38;4.30;;;18.70;98.70;;;;;;5036410;28;20234;-77
2021/05/10 06:46:24;;;;;;;4.65;4.03;;;19.00;98.80;;;;;;5036206;28;20225;-77
2021/05/10 06:48:51;;;;;;;7.25;4.90;;;19.20;98.90;;;;;;5036806;28;20200;-77
2021/05/10 06:51:18;;;;;;;5.82;4.55;;;19.30;96.20;;;;;;5036503;28;20290;-77
2021/05/10 06:53:44;;;;;;;5.60;4.70;;;19.30;95.30;;;;;;5036361;28;20250;-77
2021/05/10 06:56:11;;;;;;;9.52;4.75;;;19.30;93.40;;;;;;5036015;28;20236;-77
2021/05/10 06:58:37;;;;;;;8.90;5.03;;;19.30;93.90;;;;;;5036341;28;20555;-77
2021/05/10 07:01:04;;;;;;;6.03;5.10;;;19.40;93.80;;;;;;5036334;28;20210;-77
2021/05/10 07:03:30;;;;;;;9.05;4.50;;;19.50;93.70;;;;;;5036201;28;20308;-77
2021/05/10 07:05:57;;;;;;;8.18;4.50;;;19.60;93.40;;;;;;5036008;28;20228;-77
2021/05/10 07:08:24;;;;;;;5.60;4.77;;;19.70;93.50;;;;;;5035670;28;20295;-77
2021/05/10 07:10:51;;;;;;;6.40;4.50;;;19.90;93.80;;;;;;5036370;28;20505;-77
2021/05/10 07:13:18;;;;;;;4.67;4.27;;;20.10;93.60;;;;;;5036120;28;20463;-77
2021/05/10 07:15:45;;;;;;;10.73;4.00;;;20.30;93.30;;;;;;5036040;28;20875;-77
2021/05/10 07:18:13;;;;;;;5.43;4.03;;;20.40;93.00;;;;;;5036121;28;20530;-77
2021/05/10 07:20:41;;;;;;;3.88;3.30;;;20.30;92.50;;;;;;5035897;28;20445;-77
2021/05/10 07:23:08;;;;;;;6.13;4.22;;;20.20;93.20;;;;;;5035800;28;20211;-77
2021/05/10 07:25:40;;;;;;;4.07;3.77;;;20.30;91.50;;;;;;5035741;28;20272;-77
2021/05/10 07:28:07;;;;;;;4.20;3.50;;;20.40;91.60;;;;;;5035790;28;20452;-77
2021/05/10 07:30:33;;;;;;;4.67;3.57;;;20.40;89.60;;;;;;5035782;28;20536;-78
2021/05/10 07:32:59;;;;;;;3.67;3.37;;;20.40;90.30;;;;;;5035481;28;20811;-77
2021/05/10 07:35:25;;;;;;;9.33;2.80;;;20.60;90.30;;;;;;5035094;28;20471;-77
2021/05/10 07:37:52;;;;;;;5.40;3.13;;;20.60;88.20;;;;;;5035360;28;20448;-78
2021/05/10 07:40:22;;;;;;;6.33;3.30;;;20.60;87.50;;;;;;5035505;28;20447;-77
2021/05/10 07:42:49;;;;;;;3.43;3.13;;;20.60;86.10;;;;;;5035529;28;20476;-77
2021/05/10 07:45:15;;;;;;;4.50;3.10;;;20.70;86.20;;;;;;5035202;28;20610;-77
2021/05/10 07:47:43;;;;;;;3.43;3.07;;;20.70;86.80;;;;;;5035579;28;20537;-77
2021/05/10 07:50:10;;;;;;;3.40;3.10;;;21.00;86.50;;;;;;5035221;28;20454;-77
2021/05/10 07:52:37;;;;;;;4.83;3.77;;;21.30;84.80;;;;;;5035609;28;20454;-77
2021/05/10 07:55:04;;;;;;;3.33;3.03;;;21.80;83.60;;;;;;5035169;28;21075;-77
2021/05/10 07:57:31;;;;;;;4.23;2.93;;;21.80;82.40;;;;;;5034932;28;20439;-77
2021/05/10 07:59:57;;;;;;;3.33;2.63;;;22.40;83.70;;;;;;5035391;28;20438;-77
2021/05/10 08:02:24;;;;;;;3.23;2.87;;;23.10;78.60;;;;;;5035120;28;20443;-77
2021/05/10 08:04:51;;;;;;;3.33;3.07;;;23.60;78.20;;;;;;5034865;28;20488;-77
2021/05/10 08:07:18;;;;;;;4.33;3.00;;;24.30;76.30;;;;;;5034939;28;20444;-77
2021/05/10 08:09:44;;;;;;;4.07;3.10;;;24.30;74.70;;;;;;5035162;28;20531;-77
2021/05/10 08:12:12;;;;;;;2.97;2.77;;;24.20;77.30;;;;;;5034941;28;21029;-77
2021/05/10 08:14:39;;;;;;;3.00;2.80;;;23.70;75.60;;;;;;5035146;28;20460;-77
2021/05/10 08:17:06;;;;;;;3.17;2.87;;;24.00;75.60;;;;;;5035369;28;20540;-77
2021/05/10 08:19:32;;;;;;;3.40;3.10;;;25.40;72.60;;;;;;5034833;28;20477;-75
2021/05/10 08:21:59;;;;;;;2.83;2.40;;;27.10;67.10;;;;;;5034558;28;20450;-75
2021/05/10 08:24:26;;;;;;;2.67;2.47;;;28.20;58.70;;;;;;5034420;28;20910;-75
2021/05/10 08:26:52;;;;;;;3.23;2.93;;;27.40;59.90;;;;;;5034378;28;20631;-75
2021/05/10 08:29:19;;;;;;;3.30;2.90;;;26.20;60.60;;;;;;5034482;28;20468;-77
2021/05/10 08:31:47;;;;;;;4.83;3.37;;;24.80;65.40;;;;;;5034749;28;20543;-77
2021/05/10 08:34:13;;;;;;;2.90;2.70;;;24.00;69.30;;;;;;5034628;28;20501;-78
2021/05/10 08:36:40;;;;;;;3.07;2.77;;;23.10;72.20;;;;;;5034713;28;20497;-77
2021/05/10 08:39:09;;;;;;;3.40;2.73;;;22.60;76.10;;;;;;5034837;28;20592;-77
2021/05/10 08:41:35;;;;;;;2.70;2.50;;;22.20;79.50;;;;;;5034902;28;20834;-77
2021/05/10 08:44:03;;;;;;;2.83;2.57;;;21.90;80.10;;;;;;5034814;28;20911;-77
2021/05/10 08:46:30;;;;;;;3.83;3.10;;;21.80;82.80;;;;;;5034503;28;20569;-77
2021/05/10 08:48:58;;;;;;;3.60;2.60;;;21.70;83.80;;;;;;5035347;28;20442;-78
2021/05/10 08:51:25;;;;;;;2.43;2.23;;;21.80;85.60;;;;;;5034641;28;20532;-78
2021/05/10 08:53:52;;;;;;;2.90;2.60;;;21.90;85.90;;;;;;5034251;28;20529;-77
2021/05/10 08:56:18;;;;;;;4.60;2.40;;;22.10;82.10;;;;;;5033963;28;20556;-77
2021/05/10 08:58:46;;;;;;;3.70;2.90;;;22.10;81.90;;;;;;5034155;28;20474;-77
2021/05/10 09:01:14;;;;;;;2.80;2.60;;;22.20;81.00;;;;;;5034066;28;20543;-77
2021/05/10 09:03:44;;;;;;;3.40;3.10;;;22.10;81.20;;;;;;5033825;28;20482;-77
2021/05/10 09:06:12;;;;;;;3.23;2.93;;;22.20;80.90;;;;;;5033675;28;21022;-77
2021/05/10 09:08:40;;;;;;;5.43;2.50;;;22.10;81.40;;;;;;5034054;28;20442;-77
2021/05/10 09:11:09;;;;;;;3.10;2.80;;;22.00;82.10;;;;;;5034092;28;20928;-77
2021/05/10 09:13:37;;;;;;;2.87;2.67;;;22.00;82.60;;;;;;5034717;28;20947;-77
2021/05/10 09:16:04;;;;;;;3.10;2.80;;;22.20;84.10;;;;;;5034431;28;20493;-77
2021/05/10 09:18:31;;;;;;;2.90;2.60;;;22.50;81.80;;;;;;5034035;28;20484;-77
2021/05/10 09:21:11;;;;;;;3.87;3.10;;;22.40;81.80;;;;;;5033782;28;20537;-77
2021/05/10 09:23:37;;;;;;;2.83;2.63;;;22.00;81.20;;;;;;5033767;28;22723;-77
2021/05/10 09:26:04;;;;;;;3.00;2.80;;;21.70;83.20;;;;;;5033074;28;20564;-77
2021/05/10 09:28:37;;;;;;;3.23;2.93;;;21.40;84.70;;;;;;5033582;28;20537;-77
2021/05/10 09:31:06;;;;;;;3.30;2.90;;;21.30;85.50;;;;;;5033015;28;20500;-77
2021/05/10 09:33:33;;;;;;;3.40;3.10;;;21.60;88.60;;;;;;5033265;28;20538;-77
2021/05/10 09:36:04;;;;;;;2.97;2.77;;;21.90;84.80;;;;;;5033345;28;20470;-77
2021/05/10 09:38:33;;;;;;;3.70;2.80;;;22.00;86.70;;;;;;5033688;28;20533;-77
2021/05/10 09:41:02;;;;;;;4.90;2.37;;;22.20;83.90;;;;;;5033498;28;20446;-77
2021/05/10 09:43:31;;;;;;;3.00;2.63;;;22.50;83.20;;;;;;5033367;28;20447;-77
2021/05/10 09:45:59;;;;;;;4.33;2.57;;;23.20;81.80;;;;;;5033344;28;20527;-77
2021/05/10 09:48:29;;;;;;;2.37;2.20;;;24.70;76.80;;;;;;5033488;28;20489;-77
2021/05/10 09:50:59;;;;;;;2.87;2.40;;;25.60;71.50;;;;;;5033408;28;20449;-77
2021/05/10 09:53:41;;;;;;;3.93;2.47;;;24.90;72.00;;;;;;5033954;28;20529;-77
2021/05/10 09:56:11;;;;;;;2.73;2.37;;;26.00;72.10;;;;;;5033348;28;20481;-77
2021/05/10 09:58:49;;;;;;;2.33;2.13;;;27.00;66.00;;;;;;5033474;28;20447;-76
2021/05/10 10:01:15;;;;;;;3.37;2.10;;;27.40;60.60;;;;;;5033193;28;20917;-76
2021/05/10 10:03:43;;;;;;;3.03;2.20;;;27.60;61.50;;;;;;5033176;28;21019;-77
2021/05/10 10:06:11;;;;;;;2.00;1.90;;;28.20;58.30;;;;;;5032980;28;20471;-76
2021/05/10 10:08:40;;;;;;;2.30;1.70;;;28.10;57.90;;;;;;5033203;28;20446;-77
2021/05/10 10:11:09;;;;;;;1.67;1.57;;;27.90;57.50;;;;;;5033195;28;20534;-77
2021/05/10 10:13:36;;;;;;;1.63;1.40;;;26.40;57.70;;;;;;5033340;28;20447;-76
2021/05/10 10:16:04;;;;;;;1.53;1.43;;;25.30;62.40;;;;;;5032789;28;20894;-77
2021/05/10 10:18:31;;;;;;;2.40;1.13;;;24.70;63.50;;;;;;5033122;28;20538;-76
2021/05/10 10:20:59;;;;;;;1.40;1.30;;;23.70;64.90;;;;;;5033100;28;20449;-76
2021/05/10 10:23:28;;;;;;;2.27;1.27;;;23.10;66.60;;;;;;5033025;28;20529;-77
2021/05/10 10:25:57;;;;;;;1.90;1.30;;;22.50;69.70;;;;;;5032616;28;20998;-75
2021/05/10 10:28:26;;;;;;;1.10;1.10;;;22.30;71.10;;;;;;5032623;28;21071;-76
2021/05/10 10:31:01;;;;;;;1.67;1.17;;;22.10;75.00;;;;;;5032556;28;20936;-77
2021/05/10 10:33:35;;;;;;;1.20;1.10;;;22.20;72.70;;;;;;5033049;28;20446;-76
2021/05/10 10:36:03;;;;;;;3.33;1.33;;;22.10;73.30;;;;;;5032858;28;20821;-77
2021/05/10 10:38:31;;;;;;;1.43;1.23;;;22.10;75.50;;;;;;5032925;28;20442;-77
2021/05/10 10:41:32;;;;;;;1.20;1.10;;;22.30;74.50;;;;;;5032873;28;20478;-77
2021/05/10 10:44:29;;;;;;;1.67;1.20;;;22.50;75.30;;;;;;5034868;28;20534;-77
2021/05/10 10:46:55;;;;;;;1.10;1.00;;;22.30;74.60;;;;;;5036272;28;20460;-77
2021/05/10 10:49:32;;;;;;;1.77;1.30;;;22.40;75.80;;;;;;5036238;28;20536;-77
2021/05/10 10:51:59;;;;;;;1.20;1.10;;;22.10;76.70;;;;;;5036135;28;20446;-77
2021/05/10 10:54:28;;;;;;;3.00;1.40;;;21.90;76.30;;;;;;5036215;28;20548;-77
2021/05/10 10:56:59;;;;;;;1.30;1.20;;;21.70;76.90;;;;;;5036105;28;20480;-76
2021/05/10 10:59:30;;;;;;;1.97;1.30;;;21.30;79.40;;;;;;5036196;28;20457;-77
2021/05/10 11:01:58;;;;;;;1.83;1.40;;;21.50;80.00;;;;;;5036104;28;20445;-77
2021/05/10 11:04:26;;;;;;;4.57;1.80;;;21.20;79.00;;;;;;5035934;28;20485;-77
2021/05/10 11:06:53;;;;;;;1.80;1.20;;;21.20;81.30;;;;;;5035931;28;20444;-77
2021/05/10 11:09:48;;;;;;;1.87;1.20;;;20.80;81.80;;;;;;5036010;28;20450;-77
2021/05/10 11:12:50;;;;;;;1.43;1.33;;;20.90;84.30;;;;;;5035864;28;20454;-77
2021/05/10 11:15:47;;;;;;;1.77;1.67;;;21.20;82.30;;;;;;5035774;28;20503;-77
2021/05/10 11:18:36;;;;;;;2.27;1.60;;;21.30;82.40;;;;;;5035844;28;20492;-76
2021/05/10 11:21:06;;;;;;;1.43;1.33;;;21.10;81.60;;;;;;5035570;28;20441;-76
2021/05/10 11:23:35;;;;;;;2.67;1.50;;;20.80;84.00;;;;;;5035480;28;20445;-77
2021/05/10 11:26:04;;;;;;;2.07;1.87;;;20.80;84.90;;;;;;5035217;28;20465;-77
2021/05/10 11:28:47;;;;;;;2.10;1.30;;;20.90;86.40;;;;;;5035653;28;20536;-77
2021/05/10 11:31:16;;;;;;;3.37;1.40;;;20.90;84.60;;;;;;5035276;28;20551;-77
2021/05/10 11:34:07;;;;;;;2.07;1.20;;;20.80;84.60;;;;;;5035579;28;20530;-77
2021/05/10 11:36:34;;;;;;;1.67;1.03;;;20.60;82.70;;;;;;5035361;28;20483;-77
2021/05/10 11:39:03;;;;;;;1.00;1.00;;;20.60;82.30;;;;;;5035517;28;20469;-76
2021/05/10 11:41:30;;;;;;;1.43;1.33;;;20.60;83.10;;;;;;5035315;28;20471;-77
2021/05/10 11:43:58;;;;;;;1.40;1.03;;;20.70;83.20;;;;;;5035247;28;20486;-77
2021/05/10 11:46:35;;;;;;;1.10;1.00;;;20.70;82.50;;;;;;5035033;28;20469;-77
2021/05/10 11:49:01;;;;;;;2.97;1.10;;;20.60;82.10;;;;;;5035213;28;20851;-77
2021/05/10 11:51:29;;;;;;;1.80;1.13;;;20.70;83.00;;;;;;5035107;28;20441;-76
2021/05/10 11:53:57;;;;;;;1.07;0.90;;;20.80;80.70;;;;;;5035047;28;20446;-77
2021/05/10 11:56:25;;;;;;;0.80;0.80;;;20.90;80.40;;;;;;5033913;28;20549;-77
2021/05/10 11:58:56;;;;;;;1.07;0.90;;;20.80;80.30;;;;;;5035056;28;20448;-77
2021/05/10 12:01:34;;;;;;;0.90;0.90;;;20.80;79.00;;;;;;5035274;28;20460;-77
2021/05/10 12:04:15;;;;;;;0.90;0.90;;;20.80;79.90;;;;;;5034875;28;20562;-77
2021/05/10 12:06:43;;;;;;;0.97;0.90;;;20.80;80.00;;;;;;5034790;28;20452;-76
2021/05/10 12:09:50;;;;;;;0.77;0.77;;;20.60;80.40;;;;;;5034840;28;20536;-77
2021/05/10 12:12:37;;;;;;;2.57;1.20;;;20.50;81.10;;;;;;5034607;28;20483;-77
2021/05/10 12:15:13;;;;;;;1.30;1.20;;;20.50;81.60;;;;;;5034579;28;20487;-76
2021/05/10 12:17:43;;;;;;;3.13;1.30;;;20.60;81.90;;;;;;5034337;28;20448;-76
2021/05/10 12:20:15;;;;;;;1.33;1.23;;;20.50;81.20;;;;;;5034725;28;20452;-76
2021/05/10 12:22:42;;;;;;;0.90;0.80;;;20.50;82.00;;;;;;5034634;28;20443;-77
2021/05/10 12:25:23;;;;;;;0.70;0.70;;;20.40;80.50;;;;;;5034369;28;20949;-77
2021/05/10 12:27:56;;;;;;;0.80;0.80;;;20.40;81.20;;;;;;5034534;28;20454;-77
2021/05/10 12:30:28;;;;;;;1.67;0.87;;;20.50;81.60;;;;;;5034436;28;20453;-77
2021/05/10 12:32:58;;;;;;;0.95;0.85;;;20.30;79.40;;;;;;5034270;28;20457;-77
2021/05/10 12:35:27;;;;;;;1.97;0.90;;;20.00;78.80;;;;;;5033964;28;20259;-76
2021/05/10 12:37:55;;;;;;;2.30;0.87;;;20.20;80.60;;;;;;5034220;28;20452;-77
2021/05/10 12:40:24;;;;;;;0.97;0.70;;;20.40;79.70;;;;;;5034301;28;20556;-77
2021/05/10 12:43:09;;;;;;;0.70;0.70;;;20.50;78.80;;;;;;5034282;28;20811;-77
2021/05/10 12:45:37;;;;;;;0.70;0.70;;;20.50;77.70;;;;;;5033882;28;20494;-76
2021/05/10 12:48:16;;;;;;;0.70;0.70;;;20.60;77.80;;;;;;5034087;28;20443;-76
2021/05/10 12:50:44;;;;;;;0.63;0.50;;;20.50;76.90;;;;;;5034382;28;20445;-77
2021/05/10 12:53:10;;;;;;;1.07;0.40;;;20.50;77.30;;;;;;5033812;28;20946;-77
2021/05/10 12:55:38;;;;;;;0.90;0.60;;;20.50;77.20;;;;;;5033533;28;21045;-77
2021/05/10 12:58:18;;;;;;;0.53;0.50;;;20.40;76.90;;;;;;5033952;28;20532;-77
2021/05/10 13:00:46;;;;;;;0.40;0.40;;;20.40;76.70;;;;;;5033882;28;20457;-77